Time;durP1;ratioP1;P1;durP2;ratioP2;P2;SDS_P1;SDS_P2;PMS_P1;PMS_P2;Temp;Humidity;BMP_temperature;BMP_pressure;BME280_temperature;BME280_humidity;BME280_pressure;Samples;Min_cycle;Max_cycle;Signal;HPM_P1;HPM_P2
2021/10/20 00:01:23;;;;;;;56.78;33.70;;;230.70;2252.80;;;;;;5062737;28;20511;-77
2021/10/20 00:03:49;;;;;;;51.17;33.22;;;230.70;2252.80;;;;;;5072692;28;20024;-76
2021/10/20 00:06:15;;;;;;;47.15;33.05;;;230.60;2252.80;;;;;;5074153;28;20039;-76
2021/10/20 00:08:41;;;;;;;52.05;32.92;;;230.60;2252.80;;;;;;5068100;28;20024;-76
2021/10/20 00:11:07;;;;;;;53.05;31.67;;;230.60;2252.80;;;;;;5056473;28;20025;-76
2021/10/20 00:13:33;;;;;;;54.55;31.77;;;230.60;2252.80;;;;;;5055403;28;20397;-76
2021/10/20 00:15:59;;;;;;;47.30;29.65;;;230.60;2252.80;;;;;;5074185;28;20404;-76
2021/10/20 00:18:25;;;;;;;47.08;28.52;;;230.50;2252.80;;;;;;5055730;28;20111;-76
2021/10/20 00:20:52;;;;;;;49.85;31.08;;;230.50;2252.80;;;;;;5073050;28;20033;-76
2021/10/20 00:23:18;;;;;;;57.28;31.42;;;230.50;2252.80;;;;;;5073858;28;20025;-75
2021/10/20 00:25:44;;;;;;;47.90;29.65;;;230.50;2252.80;;;;;;5071145;28;20043;-75
2021/10/20 00:28:11;;;;;;;52.42;30.95;;;230.40;2252.80;;;;;;5055267;28;20380;-76
2021/10/20 00:30:36;;;;;;;53.42;31.98;;;230.40;2252.80;;;;;;5073963;28;20017;-76
2021/10/20 00:33:03;;;;;;;53.28;33.63;;;230.40;2252.80;;;;;;5073376;28;20498;-75
2021/10/20 00:35:28;;;;;;;51.58;33.30;;;230.40;2252.80;;;;;;5073696;28;20028;-75
2021/10/20 00:37:54;;;;;;;55.50;32.97;;;230.40;2252.80;;;;;;5073652;28;20082;-75
2021/10/20 00:40:21;;;;;;;55.60;33.72;;;230.40;2252.80;;;;;;5073406;28;20500;-76
2021/10/20 00:42:47;;;;;;;46.63;30.35;;;230.40;2252.80;;;;;;5055822;28;20033;-75
2021/10/20 00:45:13;;;;;;;59.78;32.78;;;230.50;2252.80;;;;;;5073098;28;20029;-76
2021/10/20 00:47:40;;;;;;;52.28;32.95;;;230.50;2252.80;;;;;;5055211;28;20391;-76
2021/10/20 00:50:10;;;;;;;50.85;30.45;;;230.50;2252.80;;;;;;5070431;28;20016;-76
2021/10/20 00:52:36;;;;;;;43.92;28.52;;;230.50;2252.80;;;;;;5073545;28;20017;-76
2021/10/20 00:55:04;;;;;;;49.85;30.13;;;230.50;2252.80;;;;;;5069103;28;20020;-76
2021/10/20 00:57:30;;;;;;;38.05;26.50;;;230.50;2252.80;;;;;;5073286;28;20472;-76
2021/10/20 00:59:58;;;;;;;55.78;30.60;;;230.50;2252.80;;;;;;5072199;28;20494;-75
2021/10/20 01:02:24;;;;;;;46.50;31.20;;;230.40;2252.80;;;;;;5072859;28;20541;-75
2021/10/20 01:04:50;;;;;;;51.90;31.00;;;230.40;2252.80;;;;;;5065507;28;20028;-76
2021/10/20 01:07:18;;;;;;;46.10;29.48;;;230.40;2252.80;;;;;;5055003;28;20028;-75
2021/10/20 01:09:45;;;;;;;43.83;28.23;;;205.70;2252.80;;;;;;5073290;28;20488;-76
2021/10/20 01:12:11;;;;;;;46.13;28.23;;;205.70;2252.80;;;;;;5069754;28;20486;-75
2021/10/20 01:14:39;;;;;;;43.95;27.38;;;205.70;2252.80;;;;;;5055260;28;20027;-75
2021/10/20 01:17:05;;;;;;;41.80;26.58;;;205.70;2252.80;;;;;;5072580;28;20555;-75
2021/10/20 01:19:32;;;;;;;42.50;27.65;;;205.60;2252.80;;;;;;5060153;28;20115;-75
2021/10/20 01:21:58;;;;;;;48.55;27.92;;;205.60;2252.80;;;;;;5073156;28;20426;-75
2021/10/20 01:24:24;;;;;;;45.05;29.48;;;205.60;2252.80;;;;;;5072814;28;20024;-75
2021/10/20 01:26:51;;;;;;;47.00;28.40;;;205.60;2252.80;;;;;;5073730;28;20024;-76
2021/10/20 01:29:18;;;;;;;46.55;29.40;;;205.60;2252.80;;;;;;5073772;28;20017;-76
2021/10/20 01:31:49;;;;;;;45.28;29.75;;;205.60;2252.80;;;;;;5073532;28;20017;-75
2021/10/20 01:34:14;;;;;;;46.63;28.48;;;205.50;2252.80;;;;;;5054706;28;20021;-75
2021/10/20 01:36:42;;;;;;;49.20;29.95;;;205.40;2252.80;;;;;;5072897;28;20475;-75
2021/10/20 01:39:08;;;;;;;40.75;27.13;;;205.40;2252.80;;;;;;5072285;28;20021;-75
2021/10/20 01:41:35;;;;;;;43.45;28.50;;;205.40;2252.80;;;;;;5068420;28;20033;-75
2021/10/20 01:44:00;;;;;;;42.65;28.75;;;205.40;2252.80;;;;;;5073349;28;20480;-76
2021/10/20 01:46:26;;;;;;;42.72;28.60;;;205.30;2252.80;;;;;;5072691;28;20079;-78
2021/10/20 01:48:52;;;;;;;59.75;30.73;;;205.30;2252.80;;;;;;5071894;28;20059;-75
2021/10/20 01:51:18;;;;;;;44.40;29.55;;;205.30;2252.80;;;;;;5054673;28;20028;-75
2021/10/20 01:53:44;;;;;;;43.78;29.77;;;205.20;2252.80;;;;;;5072424;28;20020;-75
2021/10/20 01:56:11;;;;;;;44.58;29.58;;;205.20;2252.80;;;;;;5053365;28;20047;-76
2021/10/20 01:58:39;;;;;;;42.13;27.65;;;205.20;2252.80;;;;;;5072642;28;20073;-76
2021/10/20 02:01:08;;;;;;;46.15;27.30;;;205.10;2252.80;;;;;;5054331;28;20033;-75
2021/10/20 02:03:36;;;;;;;43.53;28.45;;;205.10;2252.80;;;;;;5054409;28;20028;-75
2021/10/20 02:06:10;;;;;;;41.40;26.27;;;205.10;2252.80;;;;;;5060687;28;20384;-76
2021/10/20 02:08:36;;;;;;;40.45;26.60;;;205.00;2252.80;;;;;;5054100;28;20107;-76
2021/10/20 02:11:02;;;;;;;43.13;27.48;;;205.00;2252.80;;;;;;5072258;28;20016;-75
2021/10/20 02:13:28;;;;;;;42.95;28.23;;;180.10;2252.80;;;;;;5065343;28;20559;-75
2021/10/20 02:15:54;;;;;;;40.63;27.65;;;204.90;2252.80;;;;;;5071681;28;20166;-76
2021/10/20 02:18:20;;;;;;;41.92;29.27;;;204.80;2252.80;;;;;;5071795;28;20025;-75
2021/10/20 02:20:46;;;;;;;50.30;29.92;;;180.10;2252.80;;;;;;5072143;28;20028;-75
2021/10/20 02:23:12;;;;;;;45.47;32.20;;;180.10;2252.80;;;;;;5053555;28;20021;-77
2021/10/20 02:25:39;;;;;;;49.83;31.40;;;180.10;2252.80;;;;;;5067336;28;20024;-76
2021/10/20 02:28:05;;;;;;;43.60;31.00;;;204.80;2252.80;;;;;;5071454;28;20021;-76
2021/10/20 02:30:31;;;;;;;49.42;32.28;;;204.80;2252.80;;;;;;5069956;28;20468;-76
2021/10/20 02:32:57;;;;;;;47.75;30.95;;;180.10;2252.80;;;;;;5071998;28;20021;-75
2021/10/20 02:35:22;;;;;;;53.10;31.42;;;180.10;2252.80;;;;;;5053314;28;20040;-75
2021/10/20 02:37:48;;;;;;;46.33;31.02;;;180.10;2252.80;;;;;;5072352;28;20041;-75
2021/10/20 02:40:15;;;;;;;44.35;29.33;;;180.00;2252.80;;;;;;5079377;28;20078;-75
2021/10/20 02:42:42;;;;;;;46.60;30.40;;;180.10;2252.80;;;;;;5062922;28;20028;-75
2021/10/20 02:45:12;;;;;;;50.72;30.88;;;180.00;2252.80;;;;;;5067625;28;20082;-75
2021/10/20 02:47:39;;;;;;;44.15;28.83;;;180.00;2252.80;;;;;;5059134;28;20025;-75
2021/10/20 02:50:05;;;;;;;46.50;29.70;;;180.00;2252.80;;;;;;5080360;28;20111;-75
2021/10/20 02:52:31;;;;;;;54.95;32.67;;;180.00;2252.80;;;;;;5078531;28;20016;-75
2021/10/20 02:54:57;;;;;;;53.15;33.25;;;180.00;2252.80;;;;;;5086776;28;20032;-75
2021/10/20 02:57:23;;;;;;;55.55;32.10;;;180.00;2252.80;;;;;;5069248;28;20020;-75
2021/10/20 02:59:49;;;;;;;53.00;32.47;;;180.00;2252.80;;;;;;5061701;28;20028;-75
2021/10/20 03:02:15;;;;;;;50.45;34.40;;;180.00;2252.80;;;;;;5083939;28;20043;-75
2021/10/20 03:04:41;;;;;;;49.35;33.17;;;180.00;2252.80;;;;;;5079330;28;20028;-76
2021/10/20 03:07:06;;;;;;;51.33;32.33;;;180.00;2252.80;;;;;;5066186;28;20028;-75
2021/10/20 03:09:32;;;;;;;50.05;33.55;;;180.10;2252.80;;;;;;5084729;28;20031;-75
2021/10/20 03:11:58;;;;;;;56.08;32.92;;;180.10;2252.80;;;;;;5086763;28;20103;-75
2021/10/20 03:14:24;;;;;;;49.15;33.72;;;180.10;2252.80;;;;;;5090953;28;20040;-75
2021/10/20 03:16:50;;;;;;;52.75;34.65;;;180.00;2252.80;;;;;;5074306;28;20048;-75
2021/10/20 03:19:15;;;;;;;52.38;35.95;;;180.10;2252.80;;;;;;5070864;28;20028;-75
2021/10/20 03:21:41;;;;;;;53.65;34.67;;;180.10;2252.80;;;;;;5057639;28;20471;-75
2021/10/20 03:24:07;;;;;;;47.33;33.80;;;180.10;2252.80;;;;;;5066072;28;20032;-76
2021/10/20 03:26:33;;;;;;;58.85;35.55;;;180.00;2252.80;;;;;;5075402;28;20031;-75
2021/10/20 03:28:59;;;;;;;59.08;37.20;;;180.00;2252.80;;;;;;5066048;28;20111;-75
2021/10/20 03:31:25;;;;;;;60.55;34.83;;;180.00;2252.80;;;;;;5074227;28;20100;-75
2021/10/20 03:33:51;;;;;;;53.10;35.17;;;180.00;2252.80;;;;;;5075122;28;20024;-76
2021/10/20 03:36:17;;;;;;;59.88;37.40;;;180.00;2252.80;;;;;;5070654;28;20021;-76
2021/10/20 03:38:43;;;;;;;52.55;36.33;;;180.00;2252.80;;;;;;5075042;28;20356;-75
2021/10/20 03:41:09;;;;;;;55.30;37.92;;;180.00;2252.80;;;;;;5057604;28;20052;-76
2021/10/20 03:43:34;;;;;;;55.78;37.60;;;180.00;2252.80;;;;;;5074774;28;20103;-76
2021/10/20 03:46:00;;;;;;;60.92;39.05;;;179.90;2252.80;;;;;;5075743;28;20468;-76
2021/10/20 03:48:26;;;;;;;57.88;38.13;;;180.00;2252.80;;;;;;5082689;28;20027;-76
2021/10/20 03:50:51;;;;;;;56.97;38.55;;;179.90;2252.80;;;;;;5056094;28;20035;-75
2021/10/20 03:53:17;;;;;;;56.50;40.08;;;179.90;2252.80;;;;;;5069929;28;20021;-76
2021/10/20 03:55:43;;;;;;;66.13;42.40;;;179.90;2252.80;;;;;;5085135;28;20025;-76
2021/10/20 03:58:09;;;;;;;59.83;39.28;;;179.90;2252.80;;;;;;5082319;28;20039;-77
2021/10/20 04:00:35;;;;;;;62.95;41.60;;;179.90;2252.80;;;;;;5085955;28;20032;-76
2021/10/20 04:03:00;;;;;;;54.72;38.30;;;179.90;2252.80;;;;;;5059089;28;20074;-76
2021/10/20 04:05:26;;;;;;;58.00;39.60;;;179.90;2252.80;;;;;;5074508;28;20114;-76
2021/10/20 04:07:52;;;;;;;63.10;40.67;;;179.90;2252.80;;;;;;5075110;28;20382;-76
2021/10/20 04:10:24;;;;;;;59.80;40.65;;;179.90;2252.80;;;;;;5073036;28;20031;-75
2021/10/20 04:12:50;;;;;;;60.13;38.03;;;179.90;2252.80;;;;;;5074546;28;20025;-76
2021/10/20 04:15:18;;;;;;;57.95;39.83;;;179.90;2252.80;;;;;;5040027;28;20069;-76
2021/10/20 04:17:44;;;;;;;60.88;42.33;;;179.90;2252.80;;;;;;5067318;28;20382;-76
2021/10/20 04:20:13;;;;;;;63.25;43.70;;;179.90;2252.80;;;;;;5071069;28;20047;-76
2021/10/20 04:22:39;;;;;;;64.57;41.47;;;179.90;2252.80;;;;;;5056506;28;20048;-75
2021/10/20 04:25:06;;;;;;;62.55;42.83;;;180.00;2252.80;;;;;;5070162;28;20044;-75
2021/10/20 04:27:32;;;;;;;76.50;50.22;;;180.00;2252.80;;;;;;5074069;28;20107;-75
2021/10/20 04:29:59;;;;;;;83.85;55.65;;;180.00;2252.80;;;;;;5075470;28;20099;-75
2021/10/20 04:32:26;;;;;;;80.55;52.30;;;180.00;2252.80;;;;;;5081592;28;20051;-75
2021/10/20 04:34:51;;;;;;;68.65;48.08;;;180.00;2252.80;;;;;;5074274;28;20425;-75
2021/10/20 04:37:23;;;;;;;70.35;43.55;;;180.00;2252.80;;;;;;5074728;28;20100;-76
2021/10/20 04:39:50;;;;;;;63.30;43.08;;;180.00;2252.80;;;;;;5059514;28;20021;-77
2021/10/20 04:42:16;;;;;;;58.55;39.55;;;180.00;2252.80;;;;;;5058022;28;20485;-76
2021/10/20 04:44:41;;;;;;;60.15;41.97;;;180.00;2252.80;;;;;;5058279;28;20024;-75
2021/10/20 04:47:07;;;;;;;58.67;42.15;;;180.00;2252.80;;;;;;5062141;28;20490;-77
2021/10/20 04:49:33;;;;;;;60.63;41.03;;;180.00;2252.80;;;;;;5055274;28;20024;-76
2021/10/20 04:51:59;;;;;;;64.35;41.28;;;180.00;2252.80;;;;;;5055435;28;20489;-76
2021/10/20 04:54:24;;;;;;;60.17;39.20;;;180.00;2252.80;;;;;;5073492;28;20016;-76
2021/10/20 04:56:50;;;;;;;63.15;39.72;;;180.00;2252.80;;;;;;5073078;28;20025;-76
2021/10/20 04:59:16;;;;;;;60.13;39.92;;;180.00;2252.80;;;;;;5063608;28;20028;-77
2021/10/20 05:01:41;;;;;;;56.10;40.92;;;180.00;2252.80;;;;;;5063450;28;20383;-76
2021/10/20 05:04:07;;;;;;;61.10;40.35;;;180.00;2252.80;;;;;;5067854;28;20031;-76
2021/10/20 05:06:33;;;;;;;58.97;39.38;;;180.00;2252.80;;;;;;5080682;28;20028;-76
2021/10/20 05:08:58;;;;;;;57.60;39.97;;;180.00;2252.80;;;;;;5068804;28;20115;-75
2021/10/20 05:11:24;;;;;;;55.38;40.00;;;180.10;2252.80;;;;;;5074658;28;20055;-76
2021/10/20 05:13:50;;;;;;;65.60;40.17;;;180.10;2252.80;;;;;;5078474;28;20032;-76
2021/10/20 05:16:15;;;;;;;61.22;40.80;;;180.10;2252.80;;;;;;5064096;28;20087;-76
2021/10/20 05:18:41;;;;;;;66.50;42.47;;;180.10;2252.80;;;;;;5065498;28;20084;-76
2021/10/20 05:21:07;;;;;;;60.72;42.72;;;204.80;2252.80;;;;;;5056903;28;20032;-75
2021/10/20 05:23:33;;;;;;;62.33;38.95;;;204.80;2252.80;;;;;;5054509;28;20041;-75
2021/10/20 05:25:58;;;;;;;57.85;38.60;;;204.80;2252.80;;;;;;5075929;28;20032;-75
2021/10/20 05:28:24;;;;;;;56.20;37.97;;;204.90;2252.80;;;;;;5054969;28;20107;-76
2021/10/20 05:30:50;;;;;;;54.75;37.58;;;204.90;2252.80;;;;;;5055239;28;20476;-76
2021/10/20 05:33:15;;;;;;;60.83;40.67;;;204.90;2252.80;;;;;;5073591;28;20032;-76
2021/10/20 05:35:41;;;;;;;69.35;43.30;;;204.90;2252.80;;;;;;5055529;28;20021;-76
2021/10/20 05:38:07;;;;;;;60.42;39.60;;;204.90;2252.80;;;;;;5068408;28;20056;-75
2021/10/20 05:40:34;;;;;;;64.85;40.92;;;204.90;2252.80;;;;;;5054519;28;20131;-76
2021/10/20 05:43:01;;;;;;;70.22;46.95;;;205.00;2252.80;;;;;;5054337;28;20028;-76
2021/10/20 05:45:27;;;;;;;77.05;50.20;;;205.00;2252.80;;;;;;5076300;28;20029;-79
2021/10/20 05:47:53;;;;;;;73.47;49.67;;;205.10;2252.80;;;;;;5068903;28;20033;-81
2021/10/20 05:50:19;;;;;;;73.35;52.38;;;205.10;2252.80;;;;;;5059158;28;20479;-78
2021/10/20 05:52:45;;;;;;;75.97;48.47;;;205.10;2252.80;;;;;;5076286;28;20095;-80
2021/10/20 05:55:12;;;;;;;76.28;48.22;;;205.10;2252.80;;;;;;5068441;28;20078;-79
2021/10/20 06:03:59;;;;;;;50.80;38.67;;;205.20;2252.80;;;;;;5059973;28;20036;-83
2021/10/20 06:07:03;;;;;;;48.85;36.10;;;205.30;2252.80;;;;;;5058502;28;20398;-83
2021/10/20 06:09:33;;;;;;;48.42;34.80;;;205.30;2252.80;;;;;;5066030;28;20077;-83
2021/10/20 06:12:00;;;;;;;62.90;36.67;;;205.30;2252.80;;;;;;5078268;28;20486;-84
2021/10/20 06:14:26;;;;;;;53.10;37.47;;;205.40;2252.80;;;;;;5071125;28;20032;-83
2021/10/20 06:16:52;;;;;;;55.97;34.10;;;205.50;2252.80;;;;;;5059372;28;20052;-84
2021/10/20 06:19:18;;;;;;;49.88;34.78;;;205.50;2252.80;;;;;;5064737;28;20074;-84
2021/10/20 06:21:44;;;;;;;59.55;34.40;;;205.60;2252.80;;;;;;5065648;28;20024;-84
2021/10/20 06:24:10;;;;;;;51.80;34.88;;;205.60;2252.80;;;;;;5057980;28;20071;-85
2021/10/20 06:26:37;;;;;;;50.35;32.75;;;205.70;2252.80;;;;;;5055698;28;20480;-81
2021/10/20 06:29:03;;;;;;;50.63;35.00;;;230.40;2252.80;;;;;;5063180;28;20103;-84
2021/10/20 06:31:28;;;;;;;56.78;35.75;;;230.50;2252.80;;;;;;5054174;28;20439;-85
2021/10/20 06:33:54;;;;;;;45.97;31.55;;;230.60;2252.80;;;;;;5054895;28;20028;-84
2021/10/20 06:36:20;;;;;;;45.25;31.90;;;230.70;2252.80;;;;;;5053230;28;20029;-85
2021/10/20 06:38:47;;;;;;;45.67;32.10;;;230.80;2252.80;;;;;;5056867;28;20052;-84
2021/10/20 06:41:13;;;;;;;43.50;29.48;;;230.90;2252.80;;;;;;5058407;28;20542;-85
2021/10/20 06:43:39;;;;;;;40.88;29.27;;;230.90;2252.80;;;;;;5063972;28;20124;-86
2021/10/20 06:46:05;;;;;;;43.58;31.63;;;231.10;2252.80;;;;;;5066110;28;20037;-86
2021/10/20 06:48:30;;;;;;;39.13;30.35;;;231.10;2252.80;;;;;;5054256;28;20434;-86
2021/10/20 06:50:56;;;;;;;45.05;30.60;;;231.20;2252.80;;;;;;5053955;28;20111;-86
2021/10/20 06:53:23;;;;;;;39.83;28.30;;;231.30;2252.80;;;;;;5071134;28;20024;-85
2021/10/20 06:55:49;;;;;;;44.78;29.42;;;256.00;2252.80;;;;;;5065514;28;20113;-87
2021/10/20 06:58:15;;;;;;;43.30;31.55;;;256.10;2252.80;;;;;;5054659;28;20078;-87
2021/10/20 07:00:41;;;;;;;37.42;28.30;;;256.20;2252.80;;;;;;5071069;28;20025;-87
2021/10/20 07:03:07;;;;;;;36.00;26.85;;;256.40;2252.80;;;;;;5053598;28;20403;-87
2021/10/20 07:05:32;;;;;;;40.03;28.55;;;256.50;2252.80;;;;;;5070382;28;20029;-87
2021/10/20 07:07:58;;;;;;;37.15;29.05;;;256.70;2252.80;;;;;;5056048;28;20060;-87
2021/10/20 07:10:24;;;;;;;37.72;28.75;;;256.90;2252.80;;;;;;5073797;28;20103;-86
2021/10/20 07:12:50;;;;;;;40.47;27.52;;;281.70;2278.40;;;;;;5064408;28;20020;-87
2021/10/20 07:15:16;;;;;;;33.20;26.33;;;281.90;2278.40;;;;;;5057582;28;20043;-88
2021/10/20 07:17:43;;;;;;;35.40;27.02;;;282.10;2278.40;;;;;;5075383;28;20479;-87
2021/10/20 07:20:10;;;;;;;45.25;31.13;;;282.30;2278.40;;;;;;5057073;28;20094;-87
2021/10/20 07:22:38;;;;;;;35.45;25.77;;;282.40;2278.40;;;;;;5042819;28;20033;-87
2021/10/20 07:25:10;;;;;;;33.53;27.20;;;307.20;2304.00;;;;;;5059571;28;20055;-86
2021/10/20 07:27:37;;;;;;;34.63;27.10;;;307.40;2304.00;;;;;;5063317;28;20040;-86
2021/10/20 07:30:05;;;;;;;37.05;27.95;;;307.60;2304.00;;;;;;5059015;28;20033;-87
2021/10/20 07:32:31;;;;;;;39.13;26.55;;;307.90;2304.00;;;;;;5057599;28;20033;-87
2021/10/20 07:34:57;;;;;;;34.47;25.73;;;308.10;2304.00;;;;;;5053711;28;20024;-87
2021/10/20 07:37:22;;;;;;;33.25;25.63;;;332.90;2329.60;;;;;;5063236;28;20017;-87
2021/10/20 07:39:48;;;;;;;39.45;28.52;;;333.20;2329.60;;;;;;5057177;28;20039;-87
2021/10/20 07:42:14;;;;;;;37.53;27.42;;;333.40;2329.60;;;;;;5047395;28;20028;-86
2021/10/20 07:44:40;;;;;;;33.85;27.67;;;333.60;2329.60;;;;;;5051898;28;20025;-86
2021/10/20 07:47:06;;;;;;;41.78;28.67;;;358.40;2329.60;;;;;;5056703;28;20032;-87
2021/10/20 07:49:31;;;;;;;38.83;27.13;;;358.60;2329.60;;;;;;5067028;28;20142;-86
2021/10/20 07:51:57;;;;;;;38.05;26.42;;;358.90;2329.60;;;;;;5079062;28;20415;-86
2021/10/20 07:54:26;;;;;;;36.58;29.25;;;359.10;2329.60;;;;;;5065409;28;20029;-85
2021/10/20 07:56:53;;;;;;;34.90;25.70;;;359.30;2329.60;;;;;;5058610;28;20024;-85
2021/10/20 07:59:20;;;;;;;37.95;28.30;;;384.10;2329.60;;;;;;5050294;28;20040;-86
2021/10/20 08:01:46;;;;;;;35.95;28.08;;;384.30;2329.60;;;;;;5060058;28;20478;-82
2021/10/20 08:04:12;;;;;;;36.42;27.30;;;384.60;2329.60;;;;;;5067888;28;20028;-83
2021/10/20 08:06:37;;;;;;;40.00;27.67;;;384.80;2329.60;;;;;;5060075;28;20391;-82
2021/10/20 08:09:03;;;;;;;35.55;26.88;;;409.60;2355.20;;;;;;5059086;28;20020;-84
2021/10/20 08:11:29;;;;;;;41.03;27.48;;;409.90;2355.20;;;;;;5056469;28;20082;-85
2021/10/20 08:13:55;;;;;;;31.48;25.13;;;410.10;2355.20;;;;;;5056528;28;20016;-82
2021/10/20 08:16:21;;;;;;;33.70;26.52;;;410.30;2355.20;;;;;;5056564;28;20514;-81
2021/10/20 08:18:47;;;;;;;35.42;25.90;;;410.40;2355.20;;;;;;5055748;28;20040;-83
2021/10/20 08:21:13;;;;;;;29.27;23.30;;;435.20;2355.20;;;;;;5058462;28;20044;-83
2021/10/20 08:23:41;;;;;;;28.38;22.92;;;435.40;2355.20;;;;;;5068291;28;20376;-83
2021/10/20 08:26:08;;;;;;;31.65;23.75;;;435.70;2355.20;;;;;;5059188;28;20046;-82
2021/10/20 08:28:33;;;;;;;30.80;24.55;;;435.80;2355.20;;;;;;5074054;28;20075;-84
2021/10/20 08:30:59;;;;;;;30.17;24.02;;;436.10;2355.20;;;;;;5073737;28;20475;-82
2021/10/20 08:33:25;;;;;;;30.30;22.13;;;461.00;2380.80;;;;;;5072796;28;20028;-83
2021/10/20 08:35:51;;;;;;;29.55;22.83;;;461.10;2380.80;;;;;;5056117;28;20428;-83
2021/10/20 08:38:17;;;;;;;25.80;20.67;;;461.30;2380.80;;;;;;5056293;28;20066;-83
2021/10/20 08:40:46;;;;;;;33.83;21.77;;;461.40;2380.80;;;;;;5067362;28;20036;-84
2021/10/20 08:43:16;;;;;;;30.48;22.88;;;461.70;2380.80;;;;;;5067678;28;20059;-83
2021/10/20 08:45:42;;;;;;;26.50;21.25;;;461.70;2380.80;;;;;;5073454;28;20033;-84
2021/10/20 08:48:09;;;;;;;30.55;22.77;;;486.70;2380.80;;;;;;5061669;28;20078;-83
2021/10/20 08:50:36;;;;;;;27.50;21.58;;;486.90;2380.80;;;;;;5059985;28;20060;-83
2021/10/20 08:53:02;;;;;;;27.02;21.63;;;487.10;2380.80;;;;;;5079490;28;20477;-84
2021/10/20 08:55:28;;;;;;;25.88;22.70;;;487.20;2380.80;;;;;;5078504;28;20036;-82
2021/10/20 08:57:55;;;;;;;27.73;20.77;;;512.10;2380.80;;;;;;5072394;28;20468;-81
2021/10/20 09:00:22;;;;;;;25.50;21.83;;;512.30;2380.80;;;;;;5085884;28;20035;-81
2021/10/20 09:02:49;;;;;;;29.02;23.85;;;512.30;2380.80;;;;;;5085070;28;20024;-81
2021/10/20 09:05:24;;;;;;;26.83;22.50;;;512.60;2380.80;;;;;;5063564;28;20056;-82
2021/10/20 09:07:53;;;;;;;27.55;23.08;;;537.60;2406.40;;;;;;5061746;28;20081;-82
2021/10/20 09:10:20;;;;;;;30.33;24.30;;;537.70;2406.40;;;;;;5052695;28;20078;-82
2021/10/20 09:12:46;;;;;;;26.77;21.65;;;538.00;2406.40;;;;;;5055385;28;20021;-82
2021/10/20 09:15:20;;;;;;;30.75;21.85;;;538.10;2406.40;;;;;;5053920;28;20120;-83
2021/10/20 09:17:54;;;;;;;45.28;23.40;;;563.20;2432.00;;;;;;5048166;28;20032;-82
2021/10/20 09:20:25;;;;;;;26.83;21.88;;;563.40;2432.00;;;;;;5066037;28;20028;-81
2021/10/20 09:23:11;;;;;;;32.20;24.38;;;563.50;2432.00;;;;;;5054416;28;20028;-82
2021/10/20 09:26:00;;;;;;;28.02;22.92;;;563.60;2432.00;;;;;;5064491;28;20443;-83
2021/10/20 09:28:31;;;;;;;29.00;22.13;;;563.50;2432.00;;;;;;5074849;28;20016;-82
2021/10/20 09:31:01;;;;;;;33.25;24.17;;;563.70;2432.00;;;;;;5054037;28;20055;-84
2021/10/20 09:33:27;;;;;;;31.58;22.80;;;563.90;2432.00;;;;;;5057146;28;20021;-82
2021/10/20 09:35:52;;;;;;;29.40;22.88;;;564.10;2432.00;;;;;;5053861;28;20068;-82
2021/10/20 09:38:20;;;;;;;25.05;22.35;;;588.80;2432.00;;;;;;5066408;28;20067;-82
2021/10/20 09:40:48;;;;;;;31.13;23.30;;;588.80;2432.00;;;;;;5052462;28;20025;-82
2021/10/20 09:43:20;;;;;;;28.65;24.35;;;588.80;2432.00;;;;;;5068947;28;20024;-82
2021/10/20 09:45:47;;;;;;;30.35;25.02;;;589.00;2380.80;;;;;;5049841;28;20116;-83
2021/10/20 09:48:19;;;;;;;22.88;20.23;;;589.30;2355.20;;;;;;5051755;28;20024;-82
2021/10/20 09:51:07;;;;;;;24.85;20.85;;;589.50;2304.00;;;;;;5053630;28;20107;-82
2021/10/20 09:53:36;;;;;;;26.75;22.35;;;614.40;2252.80;;;;;;5068094;28;20074;-82
2021/10/20 09:56:19;;;;;;;24.55;20.38;;;614.50;2201.60;;;;;;5053843;28;20143;-83
2021/10/20 09:58:46;;;;;;;26.52;22.55;;;589.70;2227.20;;;;;;5051916;28;20144;-84
2021/10/20 10:01:24;;;;;;;21.73;18.95;;;614.50;2201.60;;;;;;5050839;28;20027;-83
2021/10/20 10:03:50;;;;;;;26.35;20.73;;;614.80;2150.40;;;;;;5070781;28;20103;-85
2021/10/20 10:06:16;;;;;;;23.98;20.45;;;615.00;2124.80;;;;;;5065424;28;20056;-84
2021/10/20 10:08:44;;;;;;;23.10;19.55;;;615.00;2073.60;;;;;;5052977;28;20036;-83
2021/10/20 10:11:10;;;;;;;24.02;20.10;;;615.20;2048.00;;;;;;5052933;28;20037;-84
2021/10/20 10:13:41;;;;;;;22.02;18.20;;;614.80;2073.60;;;;;;5053841;28;20352;-84
2021/10/20 10:16:07;;;;;;;21.08;18.65;;;615.20;2048.00;;;;;;5053878;28;20498;-83
2021/10/20 10:18:41;;;;;;;24.70;20.15;;;640.20;2022.40;;;;;;5070323;28;20518;-84
2021/10/20 10:21:34;;;;;;;24.88;19.95;;;640.10;1996.80;;;;;;5067810;28;20020;-83
2021/10/20 10:24:21;;;;;;;22.00;18.75;;;640.30;1996.80;;;;;;5066071;28;20092;-84
2021/10/20 10:27:05;;;;;;;32.08;21.35;;;640.70;1945.60;;;;;;5059995;28;20037;-83
2021/10/20 10:29:34;;;;;;;23.98;20.08;;;640.70;1920.00;;;;;;5052365;28;20185;-85
2021/10/20 10:32:06;;;;;;;24.60;19.70;;;665.80;1920.00;;;;;;5055102;28;20107;-86
2021/10/20 10:34:43;;;;;;;23.00;19.45;;;665.80;1894.40;;;;;;5055536;28;20021;-85
2021/10/20 10:37:20;;;;;;;24.98;18.85;;;666.10;1868.80;;;;;;5070415;28;20052;-86
2021/10/20 10:39:49;;;;;;;24.77;19.30;;;666.30;1817.60;;;;;;5075464;28;20090;-84
2021/10/20 10:42:15;;;;;;;20.60;17.83;;;666.50;1792.00;;;;;;5052016;28;20029;-84
2021/10/20 10:44:49;;;;;;;21.83;18.10;;;666.50;1766.40;;;;;;5048041;28;20072;-84
2021/10/20 10:47:29;;;;;;;21.10;18.80;;;666.50;1766.40;;;;;;5055415;28;20060;-84
2021/10/20 10:49:56;;;;;;;21.40;19.05;;;666.40;1766.40;;;;;;5056404;28;20086;-84
2021/10/20 10:52:39;;;;;;;23.83;19.75;;;666.40;1766.40;;;;;;5053172;28;20107;-84
2021/10/20 10:55:17;;;;;;;23.92;19.35;;;691.20;1766.40;;;;;;5067874;28;20020;-85
2021/10/20 10:57:52;;;;;;;21.08;18.77;;;691.70;1715.20;;;;;;5052980;28;20530;-84
2021/10/20 11:00:18;;;;;;;23.55;18.23;;;691.70;1715.20;;;;;;5069540;28;20017;-84
2021/10/20 11:02:47;;;;;;;20.17;17.23;;;692.00;1664.00;;;;;;5061961;28;20492;-84
2021/10/20 11:05:14;;;;;;;24.08;17.58;;;691.70;1689.60;;;;;;5071471;28;20028;-84
2021/10/20 11:07:44;;;;;;;22.50;17.92;;;691.80;1664.00;;;;;;5053167;28;20092;-85
2021/10/20 11:10:11;;;;;;;23.80;17.80;;;691.90;1638.40;;;;;;5050742;28;20041;-84
2021/10/20 11:12:38;;;;;;;24.60;19.48;;;692.00;1664.00;;;;;;5054242;28;20777;-84
2021/10/20 11:15:10;;;;;;;25.17;20.20;;;716.80;1664.00;;;;;;5075131;28;20653;-84
2021/10/20 11:17:36;;;;;;;22.38;17.60;;;692.10;1664.00;;;;;;5046664;28;20045;-85
2021/10/20 11:20:07;;;;;;;19.52;16.13;;;717.20;1638.40;;;;;;5056166;28;20025;-84
2021/10/20 11:22:33;;;;;;;20.42;17.15;;;717.50;1587.20;;;;;;5057118;28;20120;-85
2021/10/20 11:24:59;;;;;;;21.73;18.60;;;717.50;1587.20;;;;;;5057917;28;20021;-84
2021/10/20 11:27:30;;;;;;;21.33;16.50;;;717.50;1561.60;;;;;;5079234;28;20035;-86
2021/10/20 11:29:56;;;;;;;22.08;17.25;;;717.50;1561.60;;;;;;5056477;28;20013;-83
2021/10/20 11:32:23;;;;;;;24.67;17.83;;;717.70;1561.60;;;;;;5056457;28;20029;-84
2021/10/20 11:34:50;;;;;;;23.63;19.23;;;742.40;1587.20;;;;;;5056444;28;20013;-84
2021/10/20 11:37:18;;;;;;;18.75;14.65;;;717.70;1561.60;;;;;;5041967;28;20029;-86
2021/10/20 11:39:55;;;;;;;24.40;17.73;;;742.60;1510.40;;;;;;5056403;28;20032;-83
2021/10/20 11:42:23;;;;;;;25.23;19.63;;;742.60;1536.00;;;;;;5056437;28;20403;-87
2021/10/20 11:44:49;;;;;;;20.30;16.05;;;742.60;1536.00;;;;;;5058031;28;20032;-86
2021/10/20 11:47:18;;;;;;;20.27;18.17;;;742.60;1484.80;;;;;;5073025;28;20052;-87
2021/10/20 11:49:51;;;;;;;23.33;16.73;;;742.50;1510.40;;;;;;5074577;28;20021;-87
2021/10/20 11:52:22;;;;;;;21.70;16.48;;;742.40;1510.40;;;;;;5058642;28;20036;-86
2021/10/20 11:54:48;;;;;;;21.30;15.90;;;717.70;1484.80;;;;;;5064196;28;20023;-84
2021/10/20 11:57:18;;;;;;;21.75;14.95;;;742.40;1484.80;;;;;;5076700;28;20028;-86
2021/10/20 11:59:45;;;;;;;20.02;15.38;;;717.60;1459.20;;;;;;5050829;28;20361;-86
2021/10/20 12:02:12;;;;;;;21.25;14.13;;;717.70;1459.20;;;;;;5053113;28;20032;-85
2021/10/20 12:04:40;;;;;;;21.23;16.30;;;717.70;1459.20;;;;;;5058495;28;20021;-85
2021/10/20 12:07:08;;;;;;;17.75;14.75;;;717.70;1459.20;;;;;;5062180;28;20025;-87